sensor_id;sensor_type;location;lat;lon;timestamp;pressure;altitude;pressure_sealevel;temperature;humidity
26775;BME280;14362;51.902;7.626;2023-02-12T00:01:07;103129.69;;;8.16;100.00
26775;BME280;14362;51.902;7.626;2023-02-12T00:05:08;103126.28;;;8.14;100.00
26775;BME280;14362;51.902;7.626;2023-02-12T00:09:10;103119.03;;;8.13;100.00
26775;BME280;14362;51.902;7.626;2023-02-12T00:13:11;103131.25;;;8.12;100.00
26775;BME280;14362;51.902;7.626;2023-02-12T00:17:15;103123.78;;;8.12;100.00
26775;BME280;14362;51.902;7.626;2023-02-12T00:21:16;103124.03;;;8.11;100.00
26775;BME280;14362;51.902;7.626;2023-02-12T00:25:18;103122.09;;;8.11;100.00
26775;BME280;14362;51.902;7.626;2023-02-12T00:29:19;103125.13;;;8.10;100.00
26775;BME280;14362;51.902;7.626;2023-02-12T00:33:22;103123.44;;;8.09;100.00
26775;BME280;14362;51.902;7.626;2023-02-12T00:37:23;103118.97;;;8.08;100.00
26775;BME280;14362;51.902;7.626;2023-02-12T00:41:25;103122.25;;;8.05;100.00
26775;BME280;14362;51.902;7.626;2023-02-12T00:45:26;103124.16;;;8.05;100.00
26775;BME280;14362;51.902;7.626;2023-02-12T00:49:30;103122.47;;;8.04;100.00
26775;BME280;14362;51.902;7.626;2023-02-12T00:53:33;103129.13;;;8.03;100.00
26775;BME280;14362;51.902;7.626;2023-02-12T00:57:35;103129.97;;;8.03;100.00
26775;BME280;14362;51.902;7.626;2023-02-12T01:01:36;103126.59;;;8.01;100.00
26775;BME280;14362;51.902;7.626;2023-02-12T01:05:39;103124.31;;;7.98;100.00
26775;BME280;14362;51.902;7.626;2023-02-12T01:09:40;103132.91;;;7.97;100.00
26775;BME280;14362;51.902;7.626;2023-02-12T01:13:42;103138.69;;;7.95;100.00
26775;BME280;14362;51.902;7.626;2023-02-12T01:17:43;103131.22;;;7.96;100.00
26775;BME280;14362;51.902;7.626;2023-02-12T01:21:46;103132.06;;;7.96;100.00
26775;BME280;14362;51.902;7.626;2023-02-12T01:25:48;103133.75;;;7.97;100.00
26775;BME280;14362;51.902;7.626;2023-02-12T01:29:49;103140.41;;;7.96;100.00
26775;BME280;14362;51.902;7.626;2023-02-12T01:33:52;103137.28;;;7.93;100.00
26775;BME280;14362;51.902;7.626;2023-02-12T01:37:55;103132.06;;;7.96;100.00
26775;BME280;14362;51.902;7.626;2023-02-12T01:41:58;103128.13;;;7.92;100.00
26775;BME280;14362;51.902;7.626;2023-02-12T01:46:00;103124.22;;;7.93;100.00
26775;BME280;14362;51.902;7.626;2023-02-12T01:50:02;103119.19;;;7.90;100.00
26775;BME280;14362;51.902;7.626;2023-02-12T01:54:06;103123.66;;;7.91;100.00
26775;BME280;14362;51.902;7.626;2023-02-12T01:58:08;103118.34;;;7.90;100.00
26775;BME280;14362;51.902;7.626;2023-02-12T02:02:10;103114.03;;;7.82;100.00
26775;BME280;14362;51.902;7.626;2023-02-12T02:06:15;103116.31;;;7.85;100.00
26775;BME280;14362;51.902;7.626;2023-02-12T02:10:20;103118.00;;;7.86;100.00
26775;BME280;14362;51.902;7.626;2023-02-12T02:14:21;103125.13;;;7.82;100.00
26775;BME280;14362;51.902;7.626;2023-02-12T02:18:41;103118.22;;;7.85;100.00
26775;BME280;14362;51.902;7.626;2023-02-12T02:22:47;103107.88;;;7.80;100.00
26775;BME280;14362;51.902;7.626;2023-02-12T02:27:10;103110.91;;;7.79;100.00
26775;BME280;14362;51.902;7.626;2023-02-12T02:31:19;103111.16;;;7.77;100.00
26775;BME280;14362;51.902;7.626;2023-02-12T02:35:27;103097.53;;;7.76;100.00
26775;BME280;14362;51.902;7.626;2023-02-12T02:39:35;103108.38;;;7.77;100.00
26775;BME280;14362;51.902;7.626;2023-02-12T02:43:42;103102.47;;;7.74;100.00
26775;BME280;14362;51.902;7.626;2023-02-12T02:47:48;103107.22;;;7.73;100.00
26775;BME280;14362;51.902;7.626;2023-02-12T02:51:54;103105.00;;;7.75;100.00
26775;BME280;14362;51.902;7.626;2023-02-12T02:56:02;103095.25;;;7.73;100.00
26775;BME280;14362;51.902;7.626;2023-02-12T03:00:11;103102.97;;;7.71;100.00
26775;BME280;14362;51.902;7.626;2023-02-12T03:04:18;103102.16;;;7.70;100.00
26775;BME280;14362;51.902;7.626;2023-02-12T03:08:22;103102.16;;;7.70;100.00
26775;BME280;14362;51.902;7.626;2023-02-12T03:12:30;103100.19;;;7.71;100.00
26775;BME280;14362;51.902;7.626;2023-02-12T03:16:34;103095.13;;;7.68;100.00
26775;BME280;14362;51.902;7.626;2023-02-12T03:20:42;103102.63;;;7.67;100.00
26775;BME280;14362;51.902;7.626;2023-02-12T03:24:49;103099.00;;;7.67;100.00
26775;BME280;14362;51.902;7.626;2023-02-12T03:28:53;103100.09;;;7.66;100.00
26775;BME280;14362;51.902;7.626;2023-02-12T03:33:00;103106.72;;;7.65;100.00
26775;BME280;14362;51.902;7.626;2023-02-12T03:37:08;103112.28;;;7.65;100.00
26775;BME280;14362;51.902;7.626;2023-02-12T03:41:16;103117.00;;;7.64;100.00
26775;BME280;14362;51.902;7.626;2023-02-12T03:45:27;103113.41;;;7.64;100.00
26775;BME280;14362;51.902;7.626;2023-02-12T03:49:31;103112.53;;;7.63;100.00
26775;BME280;14362;51.902;7.626;2023-02-12T03:53:35;103112.81;;;7.62;100.00
26775;BME280;14362;51.902;7.626;2023-02-12T03:57:40;103120.28;;;7.61;100.00
26775;BME280;14362;51.902;7.626;2023-02-12T04:01:44;103120.28;;;7.61;100.00
26775;BME280;14362;51.902;7.626;2023-02-12T04:05:45;103124.13;;;7.60;100.00
26775;BME280;14362;51.902;7.626;2023-02-12T04:09:48;103124.13;;;7.60;100.00
26775;BME280;14362;51.902;7.626;2023-02-12T04:13:56;103122.22;;;7.61;100.00
26775;BME280;14362;51.902;7.626;2023-02-12T04:18:08;103128.25;;;7.58;100.00
26775;BME280;14362;51.902;7.626;2023-02-12T04:22:25;103120.16;;;7.56;100.00
26775;BME280;14362;51.902;7.626;2023-02-12T04:26:36;103126.31;;;7.58;100.00
26775;BME280;14362;51.902;7.626;2023-02-12T04:30:44;103131.25;;;7.56;100.00
26775;BME280;14362;51.902;7.626;2023-02-12T04:34:51;103129.59;;;7.55;100.00
26775;BME280;14362;51.902;7.626;2023-02-12T04:38:57;103130.09;;;7.52;100.00
26775;BME280;14362;51.902;7.626;2023-02-12T04:43:02;103138.44;;;7.52;100.00
26775;BME280;14362;51.902;7.626;2023-02-12T04:47:03;103144.19;;;7.51;100.00
26775;BME280;14362;51.902;7.626;2023-02-12T04:51:05;103154.47;;;7.50;100.00
26775;BME280;14362;51.902;7.626;2023-02-12T04:55:06;103158.34;;;7.49;100.00
26775;BME280;14362;51.902;7.626;2023-02-12T04:59:09;103151.94;;;7.49;100.00
26775;BME280;14362;51.902;7.626;2023-02-12T05:03:11;103154.97;;;7.47;100.00
26775;BME280;14362;51.902;7.626;2023-02-12T05:07:12;103159.66;;;7.47;100.00
26775;BME280;14362;51.902;7.626;2023-02-12T05:11:14;103164.38;;;7.46;100.00
26775;BME280;14362;51.902;7.626;2023-02-12T05:15:16;103163.28;;;7.47;100.00
26775;BME280;14362;51.902;7.626;2023-02-12T05:19:18;103161.59;;;7.46;100.00
26775;BME280;14362;51.902;7.626;2023-02-12T05:23:19;103166.81;;;7.43;100.00
26775;BME280;14362;51.902;7.626;2023-02-12T05:27:21;103159.91;;;7.45;100.00
26775;BME280;14362;51.902;7.626;2023-02-12T05:31:23;103166.53;;;7.44;100.00
26775;BME280;14362;51.902;7.626;2023-02-12T05:35:25;103172.09;;;7.44;100.00
26775;BME280;14362;51.902;7.626;2023-02-12T05:39:26;103166.53;;;7.44;100.00
26775;BME280;14362;51.902;7.626;2023-02-12T05:43:28;103165.72;;;7.44;100.00
26775;BME280;14362;51.902;7.626;2023-02-12T05:47:30;103171.28;;;7.44;100.00
26775;BME280;14362;51.902;7.626;2023-02-12T05:51:32;103160.41;;;7.42;100.00
26775;BME280;14362;51.902;7.626;2023-02-12T05:55:33;103169.81;;;7.41;100.00
26775;BME280;14362;51.902;7.626;2023-02-12T05:59:35;103165.94;;;7.42;100.00
26775;BME280;14362;51.902;7.626;2023-02-12T06:03:37;103163.44;;;7.41;100.00
26775;BME280;14362;51.902;7.626;2023-02-12T06:07:39;103167.28;;;7.40;100.00
26775;BME280;14362;51.902;7.626;2023-02-12T06:11:41;103169.22;;;7.39;100.00
26775;BME280;14362;51.902;7.626;2023-02-12T06:15:42;103170.56;;;7.37;100.00
26775;BME280;14362;51.902;7.626;2023-02-12T06:19:45;103170.28;;;7.38;100.00
26775;BME280;14362;51.902;7.626;2023-02-12T06:23:47;103171.97;;;7.39;100.00
26775;BME280;14362;51.902;7.626;2023-02-12T06:27:48;103173.31;;;7.37;100.00
26775;BME280;14362;51.902;7.626;2023-02-12T06:31:50;103178.00;;;7.36;100.00
26775;BME280;14362;51.902;7.626;2023-02-12T06:35:53;103179.34;;;7.34;100.00
26775;BME280;14362;51.902;7.626;2023-02-12T06:39:54;103175.75;;;7.33;100.00
26775;BME280;14362;51.902;7.626;2023-02-12T06:43:56;103191.53;;;7.33;100.00
26775;BME280;14362;51.902;7.626;2023-02-12T06:47:57;103186.25;;;7.31;100.00
26775;BME280;14362;51.902;7.626;2023-02-12T06:52:00;103191.81;;;7.31;100.00
26775;BME280;14362;51.902;7.626;2023-02-12T06:56:03;103191.81;;;7.31;100.00
26775;BME280;14362;51.902;7.626;2023-02-12T07:00:05;103193.72;;;7.31;100.00
26775;BME280;14362;51.902;7.626;2023-02-12T07:04:07;103197.09;;;7.33;100.00
26775;BME280;14362;51.902;7.626;2023-02-12T07:08:11;103205.19;;;7.34;100.00
26775;BME280;14362;51.902;7.626;2023-02-12T07:12:12;103210.47;;;7.36;100.00
26775;BME280;14362;51.902;7.626;2023-02-12T07:16:14;103206.00;;;7.35;100.00
26775;BME280;14362;51.902;7.626;2023-02-12T07:20:16;103225.19;;;7.36;100.00
26775;BME280;14362;51.902;7.626;2023-02-12T07:24:19;103219.63;;;7.36;100.00
26775;BME280;14362;51.902;7.626;2023-02-12T07:28:21;103219.41;;;7.38;100.00
26775;BME280;14362;51.902;7.626;2023-02-12T07:32:22;103233.88;;;7.40;100.00
26775;BME280;14362;51.902;7.626;2023-02-12T07:36:25;103223.38;;;7.42;100.00
26775;BME280;14362;51.902;7.626;2023-02-12T07:40:28;103234.84;;;7.45;100.00
26775;BME280;14362;51.902;7.626;2023-02-12T07:44:29;103234.97;;;7.50;100.00
26775;BME280;14362;51.902;7.626;2023-02-12T07:48:31;103242.81;;;7.53;100.00
26775;BME280;14362;51.902;7.626;2023-02-12T07:52:33;103243.16;;;7.57;100.00
26775;BME280;14362;51.902;7.626;2023-02-12T07:56:36;103248.22;;;7.60;100.00
26775;BME280;14362;51.902;7.626;2023-02-12T08:00:38;103241.66;;;7.66;100.00
26775;BME280;14362;51.902;7.626;2023-02-12T08:04:40;103248.41;;;7.70;100.00
26775;BME280;14362;51.902;7.626;2023-02-12T08:08:41;103255.44;;;7.72;100.00
26775;BME280;14362;51.902;7.626;2023-02-12T08:12:44;103259.38;;;7.76;100.00
26775;BME280;14362;51.902;7.626;2023-02-12T08:16:47;103257.94;;;7.85;100.00
26775;BME280;14362;51.902;7.626;2023-02-12T08:20:48;103268.56;;;7.88;100.00
26775;BME280;14362;51.902;7.626;2023-02-12T08:24:50;103272.28;;;7.94;100.00
26775;BME280;14362;51.902;7.626;2023-02-12T08:28:54;103264.53;;;7.96;100.00
26775;BME280;14362;51.902;7.626;2023-02-12T08:32:56;103279.72;;;8.05;100.00
26775;BME280;14362;51.902;7.626;2023-02-12T08:36:58;103287.34;;;8.09;100.00
26775;BME280;14362;51.902;7.626;2023-02-12T08:41:00;103286.31;;;8.15;100.00
26775;BME280;14362;51.902;7.626;2023-02-12T08:45:04;103285.63;;;8.19;100.00
26775;BME280;14362;51.902;7.626;2023-02-12T08:49:07;103296.81;;;8.24;100.00
26775;BME280;14362;51.902;7.626;2023-02-12T08:53:09;103294.41;;;8.28;100.00
26775;BME280;14362;51.902;7.626;2023-02-12T08:57:11;103295.84;;;8.30;100.00
26775;BME280;14362;51.902;7.626;2023-02-12T09:01:16;103296.44;;;8.32;100.00
26775;BME280;14362;51.902;7.626;2023-02-12T09:05:18;103295.09;;;8.35;100.00
26775;BME280;14362;51.902;7.626;2023-02-12T09:09:19;103304.63;;;8.39;100.00
26775;BME280;14362;51.902;7.626;2023-02-12T09:13:21;103300.00;;;8.44;100.00
26775;BME280;14362;51.902;7.626;2023-02-12T09:17:24;103296.34;;;8.55;100.00
26775;BME280;14362;51.902;7.626;2023-02-12T09:21:27;103308.41;;;8.61;100.00
26775;BME280;14362;51.902;7.626;2023-02-12T09:25:28;103306.56;;;8.66;100.00
26775;BME280;14362;51.902;7.626;2023-02-12T09:29:30;103307.00;;;8.75;100.00
26775;BME280;14362;51.902;7.626;2023-02-12T09:33:33;103309.22;;;8.89;100.00
26775;BME280;14362;51.902;7.626;2023-02-12T09:37:34;103316.13;;;8.87;100.00
26775;BME280;14362;51.902;7.626;2023-02-12T09:42:05;103321.09;;;9.01;100.00
26775;BME280;14362;51.902;7.626;2023-02-12T09:46:15;103319.09;;;9.13;100.00
26775;BME280;14362;51.902;7.626;2023-02-12T09:50:32;103319.75;;;9.20;100.00
26775;BME280;14362;51.902;7.626;2023-02-12T09:54:38;103312.00;;;9.22;100.00
26775;BME280;14362;51.902;7.626;2023-02-12T09:58:42;103312.88;;;9.22;100.00
26775;BME280;14362;51.902;7.626;2023-02-12T10:02:46;103317.91;;;9.25;100.00
26775;BME280;14362;51.902;7.626;2023-02-12T10:07:00;103323.81;;;9.29;100.00
26775;BME280;14362;51.902;7.626;2023-02-12T10:11:17;103317.06;;;9.41;100.00
26775;BME280;14362;51.902;7.626;2023-02-12T10:15:31;103329.91;;;9.42;100.00
26775;BME280;14362;51.902;7.626;2023-02-12T10:19:52;103332.50;;;9.49;100.00
26775;BME280;14362;51.902;7.626;2023-02-12T10:24:24;103329.94;;;9.64;100.00
26775;BME280;14362;51.902;7.626;2023-02-12T10:28:30;103328.16;;;9.74;100.00
26775;BME280;14362;51.902;7.626;2023-02-12T10:32:34;103329.38;;;9.83;100.00
26775;BME280;14362;51.902;7.626;2023-02-12T10:36:40;103325.88;;;9.93;100.00
26775;BME280;14362;51.902;7.626;2023-02-12T10:40:44;103324.97;;;9.87;100.00
26775;BME280;14362;51.902;7.626;2023-02-12T10:44:46;103330.13;;;9.95;100.00
26775;BME280;14362;51.902;7.626;2023-02-12T10:48:50;103317.28;;;9.94;100.00
26775;BME280;14362;51.902;7.626;2023-02-12T10:52:55;103313.63;;;10.10;100.00
26775;BME280;14362;51.902;7.626;2023-02-12T10:57:07;103306.09;;;10.11;100.00
26775;BME280;14362;51.902;7.626;2023-02-12T11:01:15;103309.47;;;10.13;100.00
26775;BME280;14362;51.902;7.626;2023-02-12T11:05:22;103304.63;;;10.24;100.00
26775;BME280;14362;51.902;7.626;2023-02-12T11:09:28;103304.25;;;10.16;100.00
26775;BME280;14362;51.902;7.626;2023-02-12T11:13:32;103307.94;;;10.21;100.00
26775;BME280;14362;51.902;7.626;2023-02-12T11:17:36;103306.19;;;10.37;100.00
26775;BME280;14362;51.902;7.626;2023-02-12T11:21:38;103301.72;;;10.41;100.00
26775;BME280;14362;51.902;7.626;2023-02-12T11:25:54;103307.66;;;10.44;100.00
26775;BME280;14362;51.902;7.626;2023-02-12T11:30:16;103291.59;;;10.56;100.00
26775;BME280;14362;51.902;7.626;2023-02-12T11:34:18;103295.97;;;10.74;100.00
26775;BME280;14362;51.902;7.626;2023-02-12T11:38:23;103294.75;;;10.65;100.00
26775;BME280;14362;51.902;7.626;2023-02-12T11:42:25;103294.19;;;10.63;100.00
26775;BME280;14362;51.902;7.626;2023-02-12T11:46:30;103289.75;;;10.67;100.00
26775;BME280;14362;51.902;7.626;2023-02-12T11:50:32;103280.28;;;10.68;100.00
26775;BME280;14362;51.902;7.626;2023-02-12T11:54:39;103268.56;;;10.66;100.00
26775;BME280;14362;51.902;7.626;2023-02-12T11:58:41;103271.41;;;10.71;100.00
26775;BME280;14362;51.902;7.626;2023-02-12T12:02:47;103265.38;;;10.84;100.00
26775;BME280;14362;51.902;7.626;2023-02-12T12:06:54;103269.13;;;10.68;100.00
26775;BME280;14362;51.902;7.626;2023-02-12T12:11:02;103263.50;;;10.63;100.00
26775;BME280;14362;51.902;7.626;2023-02-12T12:15:14;103264.97;;;10.70;100.00
26775;BME280;14362;51.902;7.626;2023-02-12T12:19:41;103256.38;;;10.77;100.00
26775;BME280;14362;51.902;7.626;2023-02-12T12:23:56;103256.06;;;10.73;100.00
26775;BME280;14362;51.902;7.626;2023-02-12T12:28:05;103246.66;;;10.79;100.00
26775;BME280;14362;51.902;7.626;2023-02-12T12:32:14;103241.00;;;10.74;100.00
26775;BME280;14362;51.902;7.626;2023-02-12T12:36:42;103243.28;;;10.77;100.00
26775;BME280;14362;51.902;7.626;2023-02-12T12:40:59;103234.16;;;10.87;100.00
26775;BME280;14362;51.902;7.626;2023-02-12T12:45:13;103230.22;;;10.83;100.00
26775;BME280;14362;51.902;7.626;2023-02-12T12:49:37;103229.84;;;10.74;100.00
26775;BME280;14362;51.902;7.626;2023-02-12T12:53:55;103219.34;;;10.86;100.00
26775;BME280;14362;51.902;7.626;2023-02-12T12:58:03;103208.56;;;11.00;100.00
26775;BME280;14362;51.902;7.626;2023-02-12T13:07:06;103198.31;;;11.10;100.00
26775;BME280;14362;51.902;7.626;2023-02-12T13:11:22;103191.38;;;11.13;100.00
26775;BME280;14362;51.902;7.626;2023-02-12T13:15:34;103187.13;;;11.05;100.00
26775;BME280;14362;51.902;7.626;2023-02-12T13:19:46;103183.56;;;11.15;97.77
26775;BME280;14362;51.902;7.626;2023-02-12T13:23:57;103188.28;;;11.09;100.00
26775;BME280;14362;51.902;7.626;2023-02-12T13:28:02;103194.13;;;11.08;100.00
26775;BME280;14362;51.902;7.626;2023-02-12T13:32:11;103186.19;;;10.95;100.00
26775;BME280;14362;51.902;7.626;2023-02-12T13:36:16;103190.66;;;10.91;100.00
26775;BME280;14362;51.902;7.626;2023-02-12T13:40:19;103192.16;;;11.03;100.00
26775;BME280;14362;51.902;7.626;2023-02-12T13:44:26;103200.53;;;11.08;100.00
26775;BME280;14362;51.902;7.626;2023-02-12T13:48:41;103195.81;;;11.09;100.00
26775;BME280;14362;51.902;7.626;2023-02-12T13:52:56;103191.28;;;11.03;100.00
26775;BME280;14362;51.902;7.626;2023-02-12T13:57:00;103191.81;;;11.00;100.00
26775;BME280;14362;51.902;7.626;2023-02-12T14:01:03;103187.88;;;10.91;100.00
26775;BME280;14362;51.902;7.626;2023-02-12T14:05:15;103189.75;;;10.85;100.00
26775;BME280;14362;51.902;7.626;2023-02-12T14:09:21;103201.16;;;10.79;100.00
26775;BME280;14362;51.902;7.626;2023-02-12T14:13:29;103196.91;;;10.71;100.00
26775;BME280;14362;51.902;7.626;2023-02-12T14:17:41;103207.25;;;10.71;100.00
26775;BME280;14362;51.902;7.626;2023-02-12T14:21:43;103197.72;;;10.67;100.00
26775;BME280;14362;51.902;7.626;2023-02-12T14:25:47;103197.66;;;10.62;100.00
26775;BME280;14362;51.902;7.626;2023-02-12T14:34:46;103197.31;;;10.53;100.00
26775;BME280;14362;51.902;7.626;2023-02-12T14:38:57;103205.09;;;10.51;100.00
26775;BME280;14362;51.902;7.626;2023-02-12T14:43:03;103188.56;;;10.45;100.00
26775;BME280;14362;51.902;7.626;2023-02-12T14:47:48;103191.38;;;10.45;100.00
26775;BME280;14362;51.902;7.626;2023-02-12T14:51:54;103193.00;;;10.41;100.00
26775;BME280;14362;51.902;7.626;2023-02-12T14:55:57;103182.59;;;10.31;100.00
26775;BME280;14362;51.902;7.626;2023-02-12T15:00:11;103183.75;;;10.35;100.00
26775;BME280;14362;51.902;7.626;2023-02-12T15:04:24;103181.47;;;10.32;100.00
26775;BME280;14362;51.902;7.626;2023-02-12T15:08:31;103182.56;;;10.26;100.00
26775;BME280;14362;51.902;7.626;2023-02-12T15:12:38;103182.56;;;10.26;100.00
26775;BME280;14362;51.902;7.626;2023-02-12T15:16:50;103175.53;;;10.24;100.00
26775;BME280;14362;51.902;7.626;2023-02-12T15:20:58;103167.19;;;10.24;100.00
26775;BME280;14362;51.902;7.626;2023-02-12T15:25:21;103176.06;;;10.21;100.00
26775;BME280;14362;51.902;7.626;2023-02-12T15:29:25;103175.22;;;10.20;100.00
26775;BME280;14362;51.902;7.626;2023-02-12T15:33:31;103172.97;;;10.18;100.00
26775;BME280;14362;51.902;7.626;2023-02-12T15:37:33;103168.78;;;10.15;100.00
26775;BME280;14362;51.902;7.626;2023-02-12T15:41:37;103171.22;;;10.12;100.00
26775;BME280;14362;51.902;7.626;2023-02-12T15:45:48;103167.88;;;10.10;100.00
26775;BME280;14362;51.902;7.626;2023-02-12T15:49:57;103170.34;;;10.06;100.00
26775;BME280;14362;51.902;7.626;2023-02-12T15:53:59;103166.97;;;10.04;100.00
26775;BME280;14362;51.902;7.626;2023-02-12T15:58:04;103170.28;;;10.01;100.00
26775;BME280;14362;51.902;7.626;2023-02-12T16:02:16;103152.38;;;9.97;100.00
26775;BME280;14362;51.902;7.626;2023-02-12T16:06:21;103153.72;;;9.95;100.00
26775;BME280;14362;51.902;7.626;2023-02-12T16:10:23;103151.22;;;9.93;100.00
26775;BME280;14362;51.902;7.626;2023-02-12T16:14:27;103153.69;;;9.90;100.00
26775;BME280;14362;51.902;7.626;2023-02-12T16:18:32;103155.03;;;9.87;100.00
26775;BME280;14362;51.902;7.626;2023-02-12T16:22:36;103145.50;;;9.83;100.00
26775;BME280;14362;51.902;7.626;2023-02-12T16:26:38;103161.69;;;9.81;100.00
26775;BME280;14362;51.902;7.626;2023-02-12T16:30:41;103161.09;;;9.79;100.00
26775;BME280;14362;51.902;7.626;2023-02-12T16:34:43;103159.41;;;9.78;100.00
26775;BME280;14362;51.902;7.626;2023-02-12T16:38:47;103169.38;;;9.74;100.00
26775;BME280;14362;51.902;7.626;2023-02-12T16:42:55;103164.31;;;9.71;100.00
26775;BME280;14362;51.902;7.626;2023-02-12T16:46:58;103171.28;;;9.69;100.00
26775;BME280;14362;51.902;7.626;2023-02-12T16:51:00;103157.84;;;9.66;100.00
26775;BME280;14362;51.902;7.626;2023-02-12T16:55:12;103171.19;;;9.64;100.00
26775;BME280;14362;51.902;7.626;2023-02-12T16:59:13;103175.09;;;9.63;100.00
26775;BME280;14362;51.902;7.626;2023-02-12T17:03:15;103176.47;;;9.60;100.00
26775;BME280;14362;51.902;7.626;2023-02-12T17:07:20;103179.47;;;9.59;100.00
26775;BME280;14362;51.902;7.626;2023-02-12T17:11:24;103180.59;;;9.58;100.00
26775;BME280;14362;51.902;7.626;2023-02-12T17:15:28;103178.06;;;9.56;100.00
26775;BME280;14362;51.902;7.626;2023-02-12T17:19:31;103190.31;;;9.55;100.00
26775;BME280;14362;51.902;7.626;2023-02-12T17:23:33;103178.59;;;9.53;100.00
26775;BME280;14362;51.902;7.626;2023-02-12T17:27:36;103185.53;;;9.51;100.00
26775;BME280;14362;51.902;7.626;2023-02-12T17:31:37;103196.66;;;9.51;100.00
26775;BME280;14362;51.902;7.626;2023-02-12T17:35:39;103200.78;;;9.48;100.00
26775;BME280;14362;51.902;7.626;2023-02-12T17:39:40;103208.31;;;9.48;100.00
26775;BME280;14362;51.902;7.626;2023-02-12T17:43:43;103207.94;;;9.44;100.00
26775;BME280;14362;51.902;7.626;2023-02-12T17:47:45;103204.63;;;9.42;100.00
26775;BME280;14362;51.902;7.626;2023-02-12T17:51:46;103214.31;;;9.40;100.00
26775;BME280;14362;51.902;7.626;2023-02-12T17:55:48;103217.34;;;9.38;100.00
26775;BME280;14362;51.902;7.626;2023-02-12T17:59:51;103222.91;;;9.38;100.00
26775;BME280;14362;51.902;7.626;2023-02-12T18:03:52;103210.34;;;9.36;100.00
26775;BME280;14362;51.902;7.626;2023-02-12T18:07:56;103222.34;;;9.36;100.00
26775;BME280;14362;51.902;7.626;2023-02-12T18:11:57;103210.88;;;9.33;100.00
26775;BME280;14362;51.902;7.626;2023-02-12T18:16:01;103215.84;;;9.31;100.00
26775;BME280;14362;51.902;7.626;2023-02-12T18:20:03;103216.09;;;9.29;100.00
26775;BME280;14362;51.902;7.626;2023-02-12T18:24:05;103222.16;;;9.26;100.00
26775;BME280;14362;51.902;7.626;2023-02-12T18:28:07;103221.63;;;9.24;100.00
26775;BME280;14362;51.902;7.626;2023-02-12T18:32:10;103220.75;;;9.24;100.00
26775;BME280;14362;51.902;7.626;2023-02-12T18:36:14;103217.13;;;9.23;100.00
26775;BME280;14362;51.902;7.626;2023-02-12T18:40:16;103209.88;;;9.22;100.00
26775;BME280;14362;51.902;7.626;2023-02-12T18:44:17;103212.09;;;9.20;100.00
26775;BME280;14362;51.902;7.626;2023-02-12T18:48:20;103209.31;;;9.20;100.00
26775;BME280;14362;51.902;7.626;2023-02-12T18:52:22;103205.06;;;9.18;100.00
26775;BME280;14362;51.902;7.626;2023-02-12T18:56:23;103208.13;;;9.16;100.00
26775;BME280;14362;51.902;7.626;2023-02-12T19:00:25;103205.84;;;9.13;100.00
26775;BME280;14362;51.902;7.626;2023-02-12T19:04:28;103207.53;;;9.14;100.00
26775;BME280;14362;51.902;7.626;2023-02-12T19:08:29;103211.91;;;9.11;100.00
26775;BME280;14362;51.902;7.626;2023-02-12T19:12:31;103203.84;;;9.09;100.00
26775;BME280;14362;51.902;7.626;2023-02-12T19:16:32;103214.97;;;9.09;100.00
26775;BME280;14362;51.902;7.626;2023-02-12T19:20:39;103216.88;;;9.09;100.00
26775;BME280;14362;51.902;7.626;2023-02-12T19:24:41;103213.28;;;9.08;100.00
26775;BME280;14362;51.902;7.626;2023-02-12T19:28:42;103210.72;;;9.07;100.00
26775;BME280;14362;51.902;7.626;2023-02-12T19:32:44;103213.50;;;9.07;100.00
26775;BME280;14362;51.902;7.626;2023-02-12T19:36:48;103211.28;;;9.04;100.00
26775;BME280;14362;51.902;7.626;2023-02-12T19:40:49;103219.03;;;9.02;100.00
26775;BME280;14362;51.902;7.626;2023-02-12T19:44:50;103212.88;;;9.00;100.00
26775;BME280;14362;51.902;7.626;2023-02-12T19:48:54;103209.22;;;8.99;100.00
26775;BME280;14362;51.902;7.626;2023-02-12T19:52:57;103213.97;;;8.99;100.00
26775;BME280;14362;51.902;7.626;2023-02-12T19:56:59;103204.19;;;8.96;100.00
26775;BME280;14362;51.902;7.626;2023-02-12T20:01:06;103199.97;;;8.94;100.00
26775;BME280;14362;51.902;7.626;2023-02-12T20:05:08;103198.28;;;8.93;100.00
26775;BME280;14362;51.902;7.626;2023-02-12T20:09:12;103195.16;;;8.89;100.00
26775;BME280;14362;51.902;7.626;2023-02-12T20:13:13;103194.06;;;8.90;100.00
26775;BME280;14362;51.902;7.626;2023-02-12T20:17:17;103200.72;;;8.89;100.00
26775;BME280;14362;51.902;7.626;2023-02-12T20:21:20;103200.97;;;8.88;100.00
26775;BME280;14362;51.902;7.626;2023-02-12T20:25:24;103200.41;;;8.86;100.00
26775;BME280;14362;51.902;7.626;2023-02-12T20:29:25;103199.81;;;8.84;100.00
26775;BME280;14362;51.902;7.626;2023-02-12T20:33:27;103199.72;;;8.79;100.00
26775;BME280;14362;51.902;7.626;2023-02-12T20:37:29;103197.78;;;8.79;100.00
26775;BME280;14362;51.902;7.626;2023-02-12T20:41:33;103205.28;;;8.79;100.00
26775;BME280;14362;51.902;7.626;2023-02-12T20:45:36;103202.50;;;8.79;100.00
26775;BME280;14362;51.902;7.626;2023-02-12T20:49:37;103207.22;;;8.78;100.00
26775;BME280;14362;51.902;7.626;2023-02-12T20:53:39;103200.56;;;8.79;100.00
26775;BME280;14362;51.902;7.626;2023-02-12T20:57:42;103198.88;;;8.78;100.00
26775;BME280;14362;51.902;7.626;2023-02-12T21:01:44;103196.34;;;8.77;100.00
26775;BME280;14362;51.902;7.626;2023-02-12T21:05:45;103195.25;;;8.78;100.00
26775;BME280;14362;51.902;7.626;2023-02-12T21:09:47;103193.84;;;8.75;100.00
26775;BME280;14362;51.902;7.626;2023-02-12T21:13:52;103194.94;;;8.74;100.00
26775;BME280;14362;51.902;7.626;2023-02-12T21:17:54;103192.38;;;8.73;100.00
26775;BME280;14362;51.902;7.626;2023-02-12T21:21:55;103194.34;;;8.72;100.00
26775;BME280;14362;51.902;7.626;2023-02-12T21:26:01;103203.50;;;8.73;100.00